createdAt,value
2019-04-25T00:00:43.278Z,12.39
2019-04-25T00:03:13.484Z,12.35
2019-04-25T00:05:43.611Z,12.23
2019-04-25T00:08:14.516Z,12.12
2019-04-25T00:10:44.429Z,12.05
2019-04-25T00:13:15.022Z,11.91
2019-04-25T00:15:44.977Z,11.81
2019-04-25T00:18:15.660Z,11.96
2019-04-25T00:20:52.942Z,12.03
2019-04-25T00:23:22.794Z,12.07
2019-04-25T00:26:12.157Z,11.97
2019-04-25T00:28:43.586Z,11.93
2019-04-25T00:31:13.722Z,11.58
2019-04-25T00:33:44.903Z,11.30
2019-04-25T00:36:15.031Z,11.00
2019-04-25T00:38:47.601Z,10.76
2019-04-25T00:41:16.419Z,10.56
2019-04-25T00:43:46.366Z,10.48
2019-04-25T00:46:16.254Z,10.45
2019-04-25T00:48:46.187Z,10.52
2019-04-25T00:51:16.062Z,10.53
2019-04-25T00:53:46.126Z,10.60
2019-04-25T00:56:16.044Z,10.59
2019-04-25T00:58:54.111Z,10.49
2019-04-25T01:01:26.574Z,10.44
2019-04-25T01:03:56.618Z,10.35
2019-04-25T01:06:26.375Z,10.30
2019-04-25T01:08:56.282Z,10.23
2019-04-25T01:11:26.160Z,10.20
2019-04-25T01:13:56.125Z,10.13
2019-04-25T01:16:25.901Z,10.11
2019-04-25T01:18:55.841Z,10.14
2019-04-25T01:21:25.676Z,10.06
2019-04-25T01:23:55.818Z,10.10
2019-04-25T01:26:25.769Z,10.11
2019-04-25T01:28:56.047Z,10.11
2019-04-25T01:31:27.637Z,10.16
2019-04-25T01:33:57.454Z,10.13
2019-04-25T01:36:44.907Z,10.23
2019-04-25T01:39:28.344Z,10.23
2019-04-25T01:41:59.777Z,10.19
2019-04-25T01:44:31.257Z,10.02
2019-04-25T01:47:01.211Z,9.97
2019-04-25T01:49:31.213Z,9.97
2019-04-25T01:52:01.112Z,9.95
2019-04-25T01:54:31.073Z,10.02
2019-04-25T01:57:00.898Z,9.89
2019-04-25T01:59:30.748Z,9.78
2019-04-25T02:02:00.674Z,9.83
2019-04-25T02:04:30.493Z,9.76
2019-04-25T02:07:00.374Z,9.73
2019-04-25T02:09:30.388Z,9.66
2019-04-25T02:12:01.832Z,9.64
2019-04-25T02:14:31.562Z,9.55
2019-04-25T02:17:02.340Z,9.46
2019-04-25T02:19:33.916Z,9.46
2019-04-25T02:22:04.562Z,9.14
2019-04-25T02:24:34.424Z,8.95
2019-04-25T02:27:04.720Z,8.95
2019-04-25T02:29:35.684Z,8.95
2019-04-25T02:32:08.954Z,9.10
2019-04-25T02:34:37.661Z,9.03
2019-04-25T02:37:09.410Z,8.99
2019-04-25T02:39:39.518Z,8.88
2019-04-25T02:42:09.397Z,9.02
2019-04-25T02:44:40.907Z,8.98
2019-04-25T02:47:15.131Z,8.95
2019-04-25T02:49:57.305Z,9.05
2019-04-25T02:52:28.804Z,9.19
2019-04-25T02:55:00.277Z,9.43
2019-04-25T02:57:30.138Z,9.52
2019-04-25T03:00:00.279Z,9.52
2019-04-25T03:02:30.156Z,9.46
2019-04-25T03:05:01.212Z,9.45
2019-04-25T03:07:31.339Z,9.53
2019-04-25T03:10:01.983Z,9.72
2019-04-25T03:12:34.398Z,9.93
2019-04-25T03:15:08.334Z,9.96
2019-04-25T03:17:37.800Z,10.10
2019-04-25T03:20:27.208Z,10.22
2019-04-25T03:22:59.493Z,10.50
2019-04-25T03:25:29.864Z,10.70
2019-04-25T03:28:01.198Z,10.90
2019-04-25T03:30:31.140Z,11.05
2019-04-25T03:33:02.618Z,11.19
2019-04-25T03:35:33.243Z,11.25
2019-04-25T03:38:02.414Z,11.29
2019-04-25T03:40:33.978Z,11.39
2019-04-25T03:43:05.068Z,11.49
2019-04-25T03:45:35.453Z,11.65
2019-04-25T03:48:06.271Z,11.75
2019-04-25T03:50:36.185Z,11.95
2019-04-25T03:53:07.927Z,12.17
2019-04-25T03:55:37.870Z,12.29
2019-04-25T03:58:10.534Z,12.39
2019-04-25T04:00:39.219Z,12.52
2019-04-25T04:03:09.152Z,12.63
2019-04-25T04:05:39.017Z,12.88
2019-04-25T04:08:09.694Z,13.10
2019-04-25T04:10:39.722Z,13.24
2019-04-25T04:13:10.253Z,13.38
2019-04-25T04:15:40.262Z,13.57
2019-04-25T04:18:11.656Z,13.69
2019-04-25T04:20:49.183Z,13.91
2019-04-25T04:23:36.890Z,14.11
2019-04-25T04:26:07.391Z,14.24
2019-04-25T04:28:37.309Z,14.44
2019-04-25T04:31:08.278Z,14.58
2019-04-25T04:33:38.305Z,14.75
2019-04-25T04:36:08.793Z,14.90
2019-04-25T04:38:38.651Z,15.03
2019-04-25T04:41:09.636Z,15.20
2019-04-25T04:43:39.602Z,15.35
2019-04-25T04:46:10.203Z,15.49
2019-04-25T04:48:39.298Z,15.63
2019-04-25T04:51:09.139Z,15.80
2019-04-25T04:53:39.031Z,15.94
2019-04-25T04:56:09.648Z,16.11
2019-04-25T04:58:38.826Z,16.31
2019-04-25T05:01:08.605Z,16.46
2019-04-25T05:03:53.947Z,16.65
2019-04-25T05:06:25.473Z,16.86
2019-04-25T05:08:56.915Z,17.06
2019-04-25T05:11:26.784Z,17.13
2019-04-25T05:13:57.633Z,17.24
2019-04-25T05:16:27.516Z,17.30
2019-04-25T05:18:57.360Z,17.37
2019-04-25T05:21:27.224Z,17.44
2019-04-25T05:23:57.182Z,17.39
2019-04-25T05:26:27.132Z,17.20
2019-04-25T05:28:56.985Z,17.17
2019-04-25T05:31:34.286Z,17.13
2019-04-25T05:34:04.216Z,17.16
2019-04-25T05:36:40.119Z,17.31
2019-04-25T05:39:10.301Z,17.45
2019-04-25T05:41:43.875Z,17.44
2019-04-25T05:44:15.690Z,17.56
2019-04-25T05:46:45.437Z,17.64
2019-04-25T05:49:15.658Z,17.80
2019-04-25T05:51:45.452Z,18.04
2019-04-25T05:54:16.523Z,18.16
2019-04-25T05:56:46.507Z,18.26
2019-04-25T05:59:17.942Z,18.45
2019-04-25T06:01:47.868Z,18.61
2019-04-25T06:04:17.965Z,18.85
2019-04-25T06:06:48.101Z,19.28
2019-04-25T06:09:19.519Z,19.63
2019-04-25T06:12:00.107Z,19.97
2019-04-25T06:14:29.262Z,20.24
2019-04-25T06:17:06.667Z,20.60
2019-04-25T06:19:43.993Z,20.78
2019-04-25T06:22:23.363Z,21.05
2019-04-25T06:24:57.946Z,21.22
2019-04-25T06:27:33.654Z,21.31
2019-04-25T06:30:07.128Z,21.32
2019-04-25T06:32:37.054Z,21.70
2019-04-25T06:35:07.690Z,21.80
2019-04-25T06:37:37.657Z,22.15
2019-04-25T06:40:08.491Z,22.22
2019-04-25T06:42:39.325Z,22.55
2019-04-25T06:45:18.569Z,23.12
2019-04-25T06:47:49.998Z,23.90
2019-04-25T06:50:20.521Z,26.06
2019-04-25T06:52:51.411Z,28.12
2019-04-25T06:55:22.867Z,29.82
2019-04-25T06:57:53.988Z,30.91
2019-04-25T07:00:27.746Z,31.75
2019-04-25T07:02:56.267Z,32.00
2019-04-25T07:05:33.450Z,32.13
2019-04-25T07:07:57.827Z,31.24
2019-04-25T07:10:27.811Z,30.93
2019-04-25T07:12:57.651Z,32.44
2019-04-25T07:15:27.916Z,33.65
2019-04-25T07:17:56.888Z,34.62
2019-04-25T07:20:27.070Z,35.29
2019-04-25T07:22:57.503Z,35.04
2019-04-25T07:25:28.981Z,34.43
2019-04-25T07:28:03.435Z,34.75
2019-04-25T07:30:51.448Z,35.04
2019-04-25T07:33:14.052Z,34.90
2019-04-25T07:35:43.868Z,35.48
2019-04-25T07:38:14.106Z,36.11
2019-04-25T07:40:44.126Z,36.20
2019-04-25T07:43:13.475Z,36.09
2019-04-25T07:45:43.596Z,36.64
2019-04-25T07:48:13.948Z,36.60
2019-04-25T07:50:43.978Z,36.58
2019-04-25T07:53:14.837Z,37.40
2019-04-25T07:55:43.920Z,37.93
2019-04-25T07:58:14.388Z,38.36
2019-04-25T08:00:45.339Z,38.45
2019-04-25T08:03:15.522Z,39.16
2019-04-25T08:05:45.330Z,39.48
2019-04-25T08:08:15.214Z,40.11
2019-04-25T08:11:04.470Z,41.08
2019-04-25T08:13:36.271Z,41.42
2019-04-25T08:16:07.745Z,41.23
2019-04-25T08:18:39.027Z,40.66
2019-04-25T08:21:08.865Z,40.83
2019-04-25T08:23:39.056Z,40.80
2019-04-25T08:26:09.835Z,41.17
2019-04-25T08:28:54.031Z,41.74
2019-04-25T08:31:11.593Z,41.84
2019-04-25T08:33:43.521Z,41.74
2019-04-25T08:36:13.719Z,42.48
2019-04-25T08:38:44.784Z,43.27
2019-04-25T08:41:14.671Z,43.25
2019-04-25T08:43:45.448Z,42.60
2019-04-25T08:46:15.465Z,42.76
2019-04-25T08:49:06.211Z,43.00
2019-04-25T08:51:44.704Z,42.84
2019-04-25T08:54:25.114Z,42.88
2019-04-25T08:56:56.614Z,43.38
2019-04-25T08:59:50.464Z,44.18
2019-04-25T09:02:23.552Z,44.39
2019-04-25T09:04:56.096Z,45.34
2019-04-25T09:07:26.013Z,45.77
2019-04-25T09:09:55.930Z,46.21
2019-04-25T09:12:25.818Z,45.86
2019-04-25T09:14:55.734Z,45.14
2019-04-25T09:17:25.646Z,45.10
2019-04-25T09:19:55.922Z,45.32
2019-04-25T09:22:28.950Z,45.59
2019-04-25T09:24:58.829Z,45.66
2019-04-25T09:27:28.727Z,46.67
2019-04-25T09:29:58.592Z,46.89
2019-04-25T09:32:28.422Z,47.09
2019-04-25T09:34:58.350Z,47.68
2019-04-25T09:37:28.179Z,47.63
2019-04-25T09:39:59.551Z,47.72
2019-04-25T09:42:30.422Z,48.11
2019-04-25T09:45:07.974Z,48.41
2019-04-25T09:47:39.486Z,48.87
2019-04-25T09:50:11.191Z,48.41
2019-04-25T09:52:41.142Z,48.89
2019-04-25T09:55:21.454Z,49.03
2019-04-25T09:57:55.592Z,49.28
2019-04-25T10:00:33.279Z,48.91
2019-04-25T10:03:04.522Z,49.09
2019-04-25T10:05:34.475Z,49.81
2019-04-25T10:08:04.607Z,50.31
2019-04-25T10:10:34.563Z,50.46
2019-04-25T10:13:06.585Z,50.49
2019-04-25T10:15:45.670Z,49.73
2019-04-25T10:18:16.996Z,50.64
2019-04-25T10:20:47.557Z,50.25
2019-04-25T10:23:17.721Z,50.20
2019-04-25T10:25:49.244Z,52.06
2019-04-25T10:28:19.108Z,51.70
2019-04-25T10:30:49.245Z,50.92
2019-04-25T10:33:24.189Z,53.12
2019-04-25T10:35:59.380Z,52.85
2019-04-25T10:38:27.912Z,52.38
2019-04-25T10:40:58.613Z,52.94
2019-04-25T10:43:28.540Z,53.67
2019-04-25T10:45:58.525Z,54.74
2019-04-25T10:48:28.290Z,54.66
2019-04-25T10:50:58.106Z,55.49
2019-04-25T10:53:28.013Z,57.43
2019-04-25T10:55:57.941Z,57.63
2019-04-25T10:58:27.803Z,56.85
2019-04-25T11:00:58.597Z,54.93
2019-04-25T11:03:31.176Z,53.92
2019-04-25T11:06:01.011Z,53.76
2019-04-25T11:08:31.068Z,54.10
2019-04-25T11:11:04.054Z,54.81
2019-04-25T11:13:35.477Z,56.32
2019-04-25T11:16:06.393Z,58.22
2019-04-25T11:18:36.283Z,58.49
2019-04-25T11:21:07.189Z,57.09
2019-04-25T11:23:37.007Z,58.84
2019-04-25T11:26:07.033Z,59.38
2019-04-25T11:28:38.003Z,57.80
2019-04-25T11:31:09.494Z,56.92
2019-04-25T11:33:59.037Z,57.32
2019-04-25T11:36:28.908Z,55.45
2019-04-25T11:39:16.611Z,56.35
2019-04-25T11:41:48.210Z,57.78
2019-04-25T11:44:18.120Z,58.61
2019-04-25T11:46:49.524Z,59.48
2019-04-25T11:49:20.997Z,59.97
2019-04-25T11:51:59.975Z,59.03
2019-04-25T11:54:35.908Z,58.52
2019-04-25T11:57:11.434Z,58.88
2019-04-25T11:59:41.994Z,59.91
2019-04-25T12:02:20.940Z,59.70
2019-04-25T12:04:49.049Z,59.38
2019-04-25T12:07:19.220Z,58.02
2019-04-25T12:09:49.935Z,57.25
2019-04-25T12:12:19.772Z,55.32
2019-04-25T12:14:49.581Z,55.94
2019-04-25T12:17:19.420Z,57.84
2019-04-25T12:19:49.260Z,58.56
2019-04-25T12:22:19.160Z,56.99
2019-04-25T12:24:49.060Z,57.08
2019-04-25T12:27:22.868Z,56.47
2019-04-25T12:29:52.787Z,55.67
2019-04-25T12:32:22.938Z,56.08
2019-04-25T12:34:53.639Z,56.00
2019-04-25T12:37:25.059Z,56.10
2019-04-25T12:39:55.914Z,56.00
2019-04-25T12:42:25.853Z,55.18
2019-04-25T12:44:58.125Z,55.27
2019-04-25T12:47:32.218Z,55.29
2019-04-25T12:50:02.114Z,55.18
2019-04-25T12:52:33.340Z,54.84
2019-04-25T12:55:04.459Z,54.97
2019-04-25T12:57:34.375Z,54.46
2019-04-25T13:00:05.950Z,54.38
2019-04-25T13:02:36.627Z,53.20
2019-04-25T13:05:07.557Z,51.35
2019-04-25T13:07:39.045Z,50.94
2019-04-25T13:10:09.358Z,51.52
2019-04-25T13:12:39.192Z,51.01
2019-04-25T13:15:09.832Z,50.53
2019-04-25T13:17:40.113Z,50.91
2019-04-25T13:20:10.088Z,50.37
2019-04-25T13:22:39.893Z,49.18
2019-04-25T13:25:11.028Z,48.65
2019-04-25T13:27:46.696Z,48.88
2019-04-25T13:30:33.994Z,48.73
2019-04-25T13:33:11.228Z,48.39
2019-04-25T13:35:43.381Z,47.56
2019-04-25T13:38:13.271Z,46.09
2019-04-25T13:40:43.031Z,45.94
2019-04-25T13:43:12.933Z,45.13
2019-04-25T13:45:43.775Z,43.89
2019-04-25T13:48:13.708Z,43.46
2019-04-25T13:50:44.357Z,42.94
2019-04-25T13:53:14.480Z,42.87
2019-04-25T13:55:44.334Z,42.37
2019-04-25T13:58:17.393Z,41.80
2019-04-25T14:00:47.225Z,41.53
2019-04-25T14:03:18.630Z,41.23
2019-04-25T14:05:50.161Z,40.85
2019-04-25T14:08:21.016Z,40.18
2019-04-25T14:10:50.875Z,39.78
2019-04-25T14:13:21.169Z,39.39
2019-04-25T14:15:59.380Z,39.16
2019-04-25T14:18:32.818Z,38.54
2019-04-25T14:21:10.093Z,37.74
2019-04-25T14:23:39.917Z,37.58
2019-04-25T14:26:13.254Z,37.67
2019-04-25T14:28:44.553Z,37.26
2019-04-25T14:31:33.509Z,37.10
2019-04-25T14:33:54.274Z,36.70
2019-04-25T14:36:27.637Z,36.43
2019-04-25T14:38:58.237Z,36.22
2019-04-25T14:41:32.586Z,36.00
2019-04-25T14:44:05.587Z,35.62
2019-04-25T14:46:37.725Z,35.17
2019-04-25T14:49:07.121Z,34.80
2019-04-25T14:51:38.512Z,34.36
2019-04-25T14:54:09.958Z,34.04
2019-04-25T14:56:42.871Z,33.66
2019-04-25T14:59:14.051Z,33.32
2019-04-25T15:01:46.719Z,32.81
2019-04-25T15:04:16.584Z,32.41
2019-04-25T15:06:48.347Z,30.83
2019-04-25T15:09:18.397Z,29.84
2019-04-25T15:11:51.063Z,29.65
2019-04-25T15:14:21.026Z,29.70
2019-04-25T15:16:53.931Z,29.56
2019-04-25T15:19:29.578Z,29.24
2019-04-25T15:21:59.380Z,29.08
2019-04-25T15:24:30.312Z,28.02
2019-04-25T15:27:00.068Z,28.02
2019-04-25T15:29:29.899Z,27.43
2019-04-25T15:31:59.781Z,27.02
2019-04-25T15:34:31.218Z,26.72
2019-04-25T15:37:08.634Z,26.52
2019-04-25T15:39:52.014Z,25.92
2019-04-25T15:42:39.725Z,25.37
2019-04-25T15:45:11.259Z,25.04
2019-04-25T15:47:41.265Z,24.74
2019-04-25T15:50:11.630Z,24.46
2019-04-25T15:52:40.726Z,24.01
2019-04-25T15:55:10.926Z,23.89
2019-04-25T15:57:41.515Z,23.69
2019-04-25T16:00:13.744Z,23.48
2019-04-25T16:02:43.800Z,23.30
2019-04-25T16:05:13.813Z,23.18
2019-04-25T16:07:43.998Z,22.83
2019-04-25T16:10:14.460Z,22.53
2019-04-25T16:12:44.824Z,22.26
2019-04-25T16:15:14.736Z,22.02
2019-04-25T16:17:44.598Z,21.83
2019-04-25T16:20:15.420Z,21.57
2019-04-25T16:22:45.393Z,21.29
2019-04-25T16:25:15.613Z,21.06
2019-04-25T16:27:45.442Z,20.70
2019-04-25T16:30:15.519Z,20.39
2019-04-25T16:32:45.431Z,20.12
2019-04-25T16:35:15.307Z,19.84
2019-04-25T16:37:46.204Z,19.78
2019-04-25T16:40:16.237Z,19.67
2019-04-25T16:42:46.168Z,19.51
2019-04-25T16:45:16.244Z,19.25
2019-04-25T16:47:46.134Z,19.05
2019-04-25T16:50:17.201Z,18.91
2019-04-25T16:52:47.094Z,18.78
2019-04-25T16:55:17.419Z,18.72
2019-04-25T16:57:47.387Z,18.51
2019-04-25T17:00:36.220Z,18.30
2019-04-25T17:03:06.356Z,18.13
2019-04-25T17:05:39.350Z,18.06
2019-04-25T17:08:09.486Z,17.83
2019-04-25T17:10:39.563Z,17.71
2019-04-25T17:13:09.586Z,17.61
2019-04-25T17:15:49.857Z,17.53
2019-04-25T17:18:27.060Z,17.54
2019-04-25T17:21:11.819Z,17.49
2019-04-25T17:23:44.235Z,17.33
2019-04-25T17:26:14.597Z,17.16
2019-04-25T17:28:46.071Z,17.15
2019-04-25T17:31:26.486Z,17.33
2019-04-25T17:34:06.700Z,17.99
2019-04-25T17:36:44.059Z,18.44
2019-04-25T17:39:27.656Z,18.27
2019-04-25T17:41:57.587Z,18.44
2019-04-25T17:44:27.342Z,18.79
2019-04-25T17:47:06.120Z,18.86
2019-04-25T17:49:28.920Z,18.56
2019-04-25T17:51:58.735Z,18.65
2019-04-25T17:54:28.689Z,18.68
2019-04-25T17:56:58.755Z,18.57
2019-04-25T17:59:28.720Z,18.37
2019-04-25T18:01:58.637Z,18.14
2019-04-25T18:04:29.951Z,18.26
2019-04-25T18:06:59.802Z,18.26
2019-04-25T18:09:29.715Z,18.03
2019-04-25T18:11:59.597Z,18.05
2019-04-25T18:14:29.441Z,18.17
2019-04-25T18:16:59.415Z,18.09
2019-04-25T18:19:34.077Z,18.01
2019-04-25T18:22:11.390Z,17.88
2019-04-25T18:25:00.853Z,17.72
2019-04-25T18:27:33.320Z,17.75
2019-04-25T18:30:06.040Z,17.65
2019-04-25T18:32:37.063Z,17.34
2019-04-25T18:35:09.949Z,17.02
2019-04-25T18:37:53.302Z,16.86
2019-04-25T18:40:35.620Z,17.05
2019-04-25T18:43:04.137Z,16.90
2019-04-25T18:45:38.352Z,17.05
2019-04-25T18:48:08.225Z,16.95
2019-04-25T18:50:38.563Z,16.92
2019-04-25T18:53:10.011Z,16.90
2019-04-25T18:55:44.242Z,17.01
2019-04-25T18:58:31.727Z,16.82
2019-04-25T19:01:15.208Z,16.66
2019-04-25T19:03:52.537Z,16.61
2019-04-25T19:06:23.989Z,16.84
2019-04-25T19:08:53.899Z,16.65
2019-04-25T19:11:23.804Z,16.31
2019-04-25T19:13:53.757Z,16.01
2019-04-25T19:16:23.645Z,15.94
2019-04-25T19:18:53.514Z,16.09
2019-04-25T19:21:23.389Z,16.33
2019-04-25T19:23:54.171Z,16.36
2019-04-25T19:26:24.619Z,16.44
2019-04-25T19:28:54.501Z,16.23
2019-04-25T19:31:24.391Z,16.25
2019-04-25T19:33:54.282Z,16.37
2019-04-25T19:36:24.176Z,16.64
2019-04-25T19:38:54.524Z,16.98
2019-04-25T19:41:28.899Z,16.84
2019-04-25T19:44:12.523Z,16.85
2019-04-25T19:46:44.919Z,16.82
2019-04-25T19:49:14.873Z,16.80
2019-04-25T19:51:45.164Z,16.91
2019-04-25T19:54:15.035Z,16.94
2019-04-25T19:56:45.367Z,17.18
2019-04-25T19:59:15.283Z,17.07
2019-04-25T20:01:45.961Z,17.09
2019-04-25T20:04:20.440Z,17.15
2019-04-25T20:06:51.963Z,17.00
2019-04-25T20:09:39.701Z,16.80
2019-04-25T20:12:09.598Z,16.73
2019-04-25T20:14:39.334Z,16.85
2019-04-25T20:17:09.817Z,16.87
2019-04-25T20:19:39.681Z,16.83
2019-04-25T20:22:09.501Z,16.79
2019-04-25T20:24:39.396Z,16.74
2019-04-25T20:27:09.186Z,16.63
2019-04-25T20:29:39.145Z,16.57
2019-04-25T20:32:08.950Z,16.71
2019-04-25T20:34:38.893Z,16.64
2019-04-25T20:37:08.736Z,16.87
2019-04-25T20:39:38.505Z,16.65
2019-04-25T20:42:08.462Z,16.56
2019-04-25T20:44:38.318Z,16.57
2019-04-25T20:47:08.228Z,16.38
2019-04-25T20:49:38.114Z,16.12
2019-04-25T20:52:07.947Z,16.17
2019-04-25T20:54:37.803Z,16.09
2019-04-25T20:57:07.622Z,15.85
2019-04-25T20:59:37.457Z,15.88
2019-04-25T21:02:08.416Z,16.49
2019-04-25T21:04:42.939Z,16.56
2019-04-25T21:07:12.876Z,16.85
2019-04-25T21:09:42.708Z,16.62
2019-04-25T21:12:12.545Z,16.61
2019-04-25T21:14:43.990Z,16.62
2019-04-25T21:17:27.249Z,16.29
2019-04-25T21:19:58.815Z,16.09
2019-04-25T21:22:28.678Z,16.20
2019-04-25T21:24:58.547Z,16.19
2019-04-25T21:27:28.375Z,16.08
2019-04-25T21:29:58.298Z,16.29
2019-04-25T21:32:28.151Z,16.23
2019-04-25T21:34:59.020Z,16.09
2019-04-25T21:37:28.181Z,16.00
2019-04-25T21:40:08.525Z,15.78
2019-04-25T21:42:40.372Z,15.75
2019-04-25T21:45:10.442Z,15.64
2019-04-25T21:47:40.275Z,15.57
2019-04-25T21:50:10.825Z,15.56
2019-04-25T21:52:40.132Z,15.58
2019-04-25T21:55:10.092Z,15.43
2019-04-25T21:57:40.284Z,15.54
2019-04-25T22:00:13.465Z,15.54
2019-04-25T22:02:44.420Z,15.60
2019-04-25T22:05:14.524Z,15.73
2019-04-25T22:07:44.636Z,15.88
2019-04-25T22:10:14.876Z,15.58
2019-04-25T22:12:44.769Z,15.63
2019-04-25T22:15:16.293Z,15.34
2019-04-25T22:17:46.134Z,15.30
2019-04-25T22:20:16.122Z,15.19
2019-04-25T22:22:46.261Z,15.33
2019-04-25T22:25:16.000Z,15.33
2019-04-25T22:27:46.429Z,15.76
2019-04-25T22:30:18.030Z,15.94
2019-04-25T22:33:03.637Z,15.91
2019-04-25T22:35:53.342Z,16.30
2019-04-25T22:38:23.446Z,16.58
2019-04-25T22:40:54.625Z,16.23
2019-04-25T22:43:24.702Z,16.02
2019-04-25T22:45:54.956Z,16.11
2019-04-25T22:48:26.544Z,15.98
2019-04-25T22:50:57.530Z,15.92
2019-04-25T22:53:26.805Z,16.58
2019-04-25T22:55:57.121Z,16.77
2019-04-25T22:58:27.013Z,16.62
2019-04-25T23:00:57.038Z,16.36
2019-04-25T23:03:28.527Z,16.22
2019-04-25T23:05:58.424Z,16.01
2019-04-25T23:08:28.632Z,15.98
2019-04-25T23:10:58.532Z,16.08
2019-04-25T23:13:28.463Z,16.28
2019-04-25T23:15:58.478Z,16.38
2019-04-25T23:18:28.620Z,16.22
2019-04-25T23:20:58.405Z,16.29
2019-04-25T23:23:28.482Z,16.37
2019-04-25T23:26:03.561Z,16.52
2019-04-25T23:28:40.304Z,16.31
2019-04-25T23:31:12.531Z,16.14
2019-04-25T23:33:42.489Z,15.98
2019-04-25T23:36:13.224Z,15.87
2019-04-25T23:38:43.068Z,15.91
2019-04-25T23:41:13.580Z,15.82
2019-04-25T23:43:43.477Z,15.71
2019-04-25T23:46:14.189Z,15.64
2019-04-25T23:48:44.341Z,15.79
2019-04-25T23:51:14.361Z,15.72
2019-04-25T23:53:45.062Z,15.63
2019-04-25T23:56:15.281Z,15.84
2019-04-25T23:58:45.289Z,15.84
